Time;durP1;ratioP1;P1;durP2;ratioP2;P2;SDS_P1;SDS_P2;PMS_P1;PMS_P2;Temp;Humidity;BMP_temperature;BMP_pressure;BME280_temperature;BME280_humidity;BME280_pressure;Samples;Min_cycle;Max_cycle;Signal;HPM_P1;HPM_P2
2021/07/15 00:01:51;;;;;;;8.58;5.28;;;;;;;20.38;70.75;96805.80;1759087;80;25651;-82
2021/07/15 00:04:17;;;;;;;9.00;4.95;;;;;;;20.36;70.85;96812.11;1758857;80;27372;-82
2021/07/15 00:06:44;;;;;;;11.93;5.87;;;;;;;20.37;70.79;96834.31;1758524;81;26433;-81
2021/07/15 00:09:13;;;;;;;7.00;4.80;;;;;;;20.42;70.80;96854.80;1758924;80;25691;-81
2021/07/15 00:11:45;;;;;;;9.60;5.33;;;;;;;20.46;70.76;96868.21;1759000;80;25663;-82
2021/07/15 00:14:12;;;;;;;9.83;4.83;;;;;;;20.48;70.69;96875.60;1758699;80;25663;-80
2021/07/15 00:16:39;;;;;;;5.92;4.37;;;;;;;20.47;70.69;96891.78;1759001;80;27246;-81
2021/07/15 00:19:11;;;;;;;9.25;5.00;;;;;;;20.42;70.66;96897.84;1758721;80;25252;-82
2021/07/15 00:21:37;;;;;;;12.58;4.80;;;;;;;20.35;71.01;96889.96;1758981;80;25272;-82
2021/07/15 00:24:05;;;;;;;7.55;4.53;;;;;;;20.33;71.22;96917.35;1758996;80;25524;-82
2021/07/15 00:26:31;;;;;;;8.73;4.30;;;;;;;20.24;71.28;96968.39;1758941;81;25734;-82
2021/07/15 00:28:58;;;;;;;8.80;5.05;;;;;;;20.23;71.36;96963.47;1758001;80;27417;-83
2021/07/15 00:31:24;;;;;;;8.30;5.30;;;;;;;20.19;71.33;96978.00;1756602;80;25829;-82
2021/07/15 00:33:51;;;;;;;12.63;6.03;;;;;;;20.08;71.49;96953.95;1748161;80;25750;-82
2021/07/15 00:36:17;;;;;;;9.05;5.28;;;;;;;20.06;71.88;96935.06;1753195;80;25668;-83
2021/07/15 00:38:44;;;;;;;10.93;5.62;;;;;;;19.99;72.09;96886.63;1756967;81;25675;-83
2021/07/15 00:41:11;;;;;;;9.98;5.62;;;;;;;19.88;72.28;96871.36;1756785;80;27364;-83
2021/07/15 00:43:37;;;;;;;10.15;5.22;;;;;;;19.84;72.36;96865.35;1756767;80;25770;-83
2021/07/15 00:46:04;;;;;;;8.45;5.40;;;;;;;19.78;72.46;96864.03;1788055;80;25261;-81
2021/07/15 00:48:31;;;;;;;10.28;5.58;;;;;;;19.68;72.75;96894.19;1768236;81;26351;-83
2021/07/15 00:50:57;;;;;;;11.83;6.25;;;;;;;19.57;72.95;96894.52;1756962;80;25876;-82
2021/07/15 00:53:25;;;;;;;8.33;6.03;;;;;;;19.56;73.25;96873.75;1756777;80;28216;-83
2021/07/15 00:55:52;;;;;;;10.78;5.37;;;;;;;19.62;73.45;96852.89;1756729;80;25716;-83
2021/07/15 00:58:19;;;;;;;8.68;4.75;;;;;;;19.67;73.49;96836.45;1756693;80;25735;-83
2021/07/15 01:00:48;;;;;;;7.58;5.08;;;;;;;19.71;73.57;96816.14;1756545;80;25841;-82
2021/07/15 01:03:19;;;;;;;10.08;5.40;;;;;;;19.64;73.52;96809.63;1756843;80;26394;-82
2021/07/15 01:05:49;;;;;;;10.68;5.87;;;;;;;19.57;73.69;96813.21;1756867;80;28301;-82
2021/07/15 01:08:17;;;;;;;10.32;6.15;;;;;;;19.49;73.87;96811.62;1756775;80;25943;-82
2021/07/15 01:10:51;;;;;;;9.73;5.95;;;;;;;19.49;74.04;96811.08;1756753;80;25694;-82
2021/07/15 01:13:50;;;;;;;7.90;5.20;;;;;;;19.55;74.26;96807.23;1755856;80;25791;-82
2021/07/15 01:16:28;;;;;;;10.13;5.45;;;;;;;19.63;74.36;96806.62;1756815;80;25819;-80
2021/07/15 01:19:26;;;;;;;12.50;5.80;;;;;;;19.61;74.42;96844.41;1756870;80;28327;-82
2021/07/15 01:22:18;;;;;;;10.15;5.72;;;;;;;19.53;74.46;96835.98;1755659;81;25770;-82
2021/07/15 01:25:33;;;;;;;10.10;6.17;;;;;;;19.55;74.83;96826.39;1757027;80;25718;-83
2021/07/15 01:28:28;;;;;;;7.87;5.78;;;;;;;19.58;74.91;96820.33;1756930;80;25776;-82
2021/07/15 01:30:59;;;;;;;15.65;6.10;;;;;;;19.55;74.97;96845.55;1757056;80;25669;-82
2021/07/15 01:33:31;;;;;;;13.10;5.93;;;;;;;19.53;75.09;96864.17;1755519;81;27505;-82
2021/07/15 01:36:06;;;;;;;8.88;5.67;;;;;;;19.53;75.17;96858.70;1742761;81;25796;-83
2021/07/15 01:38:52;;;;;;;12.55;6.08;;;;;;;19.57;75.24;96838.39;1754689;81;25764;-82
2021/07/15 01:41:27;;;;;;;11.90;6.28;;;;;;;19.62;75.39;96811.00;1737646;81;26502;-82
2021/07/15 01:44:08;;;;;;;10.18;6.03;;;;;;;19.61;75.27;96808.00;1763864;81;25809;-83
2021/07/15 01:46:35;;;;;;;13.08;5.95;;;;;;;19.57;75.07;96796.78;1756143;81;27479;-84
2021/07/15 01:49:03;;;;;;;10.13;7.00;;;;;;;19.55;75.25;96780.40;1757365;80;25729;-82
2021/07/15 01:51:30;;;;;;;13.05;6.22;;;;;;;19.56;75.27;96770.51;1756595;81;25857;-82
2021/07/15 01:53:57;;;;;;;9.88;6.15;;;;;;;19.61;75.41;96767.75;1756164;81;25838;-83
2021/07/15 01:56:26;;;;;;;9.10;5.75;;;;;;;19.68;75.47;96767.45;1738501;80;25769;-83
2021/07/15 01:58:55;;;;;;;9.08;6.10;;;;;;;19.68;75.50;96764.70;1737565;81;28428;-83
2021/07/15 02:01:23;;;;;;;13.48;6.40;;;;;;;19.59;75.66;96769.95;1761657;81;25705;-83
2021/07/15 02:03:54;;;;;;;11.55;6.37;;;;;;;19.58;75.80;96769.68;1756749;80;25766;-83
2021/07/15 02:06:24;;;;;;;10.08;6.60;;;;;;;19.62;75.83;96763.91;1756835;81;25757;-83
2021/07/15 02:08:52;;;;;;;10.10;6.47;;;;;;;19.60;75.84;96767.48;1750639;81;25719;-83
2021/07/15 02:11:22;;;;;;;11.28;6.55;;;;;;;19.57;76.00;96762.56;1756879;80;27567;-82
2021/07/15 02:13:51;;;;;;;15.50;6.45;;;;;;;19.56;76.01;96779.30;1766524;81;25745;-83
2021/07/15 02:16:18;;;;;;;9.43;6.65;;;;;;;19.50;76.03;96789.45;1747790;81;25704;-82
2021/07/15 02:18:47;;;;;;;10.82;6.97;;;;;;;19.54;76.23;96804.77;1756421;80;25725;-82
2021/07/15 02:21:16;;;;;;;13.53;6.97;;;;;;;19.58;76.19;96828.54;1756727;80;26256;-84
2021/07/15 02:23:44;;;;;;;12.53;7.40;;;;;;;19.63;76.21;96823.05;1736854;80;27385;-83
2021/07/15 02:26:13;;;;;;;15.20;7.12;;;;;;;19.63;76.18;96811.27;1774527;79;25994;-83
2021/07/15 02:28:40;;;;;;;11.57;6.37;;;;;;;19.57;76.33;96800.07;1738632;82;25740;-83
2021/07/15 02:31:14;;;;;;;13.60;6.92;;;;;;;19.51;76.50;96786.16;1750940;80;25800;-82
2021/07/15 02:33:49;;;;;;;11.03;7.17;;;;;;;19.46;76.59;96809.41;1756057;81;25804;-83
2021/07/15 02:36:18;;;;;;;13.48;7.70;;;;;;;19.46;76.70;96838.16;1756036;80;27568;-83
2021/07/15 02:38:49;;;;;;;20.35;8.43;;;;;;;19.42;76.72;96832.45;1726458;80;25896;-83
2021/07/15 02:41:15;;;;;;;13.43;7.58;;;;;;;19.46;76.87;96823.09;1756026;81;25291;-82
2021/07/15 02:43:42;;;;;;;15.65;8.03;;;;;;;19.50;76.90;96831.06;1755966;80;25674;-81
2021/07/15 02:46:08;;;;;;;16.57;8.50;;;;;;;19.52;76.80;96858.42;1756096;81;25658;-83
2021/07/15 02:48:35;;;;;;;11.38;7.70;;;;;;;19.55;76.81;96846.92;1755895;81;27584;-83
2021/07/15 02:51:02;;;;;;;13.50;8.28;;;;;;;19.56;76.90;96825.26;1748314;81;25730;-83
2021/07/15 02:53:28;;;;;;;16.20;7.78;;;;;;;19.55;76.95;96821.46;1745809;80;25781;-82
2021/07/15 02:56:03;;;;;;;15.25;7.92;;;;;;;19.51;77.02;96794.38;1769964;81;25757;-82
2021/07/15 02:58:38;;;;;;;16.37;8.83;;;;;;;19.50;77.23;96814.09;1753995;80;25695;-81
2021/07/15 03:01:09;;;;;;;14.03;7.97;;;;;;;19.49;77.16;96880.88;1755734;80;27580;-82
2021/07/15 03:04:19;;;;;;;13.62;9.03;;;;;;;19.53;77.13;96904.41;1755413;80;26406;-80
2021/07/15 03:06:45;;;;;;;14.47;8.83;;;;;;;19.44;77.17;96891.25;1756119;81;25739;-82
2021/07/15 03:09:20;;;;;;;17.87;8.90;;;;;;;19.37;77.65;96831.09;1756007;80;25739;-83
2021/07/15 03:12:01;;;;;;;16.65;9.10;;;;;;;19.34;77.73;96801.55;1755607;81;25790;-81
2021/07/15 03:14:31;;;;;;;13.83;8.83;;;;;;;19.26;77.61;96793.94;1755972;80;27529;-82
2021/07/15 03:17:00;;;;;;;14.20;9.45;;;;;;;19.19;77.79;96785.23;1755935;81;25776;-82
2021/07/15 03:19:33;;;;;;;15.93;8.98;;;;;;;19.11;77.66;96779.77;1755983;80;25737;-82
2021/07/15 03:22:01;;;;;;;;;;;;;;;19.03;77.79;96783.10;1758577;80;25731;-82
2021/07/15 03:24:31;;;;;;;13.85;9.25;;;;;;;19.00;78.25;96770.80;1755898;81;26320;-84
2021/07/15 03:27:03;;;;;;;14.80;8.68;;;;;;;19.00;78.26;96780.37;1770004;81;26773;-83
2021/07/15 03:29:30;;;;;;;18.70;9.75;;;;;;;18.94;78.24;96781.50;1753143;81;25268;-83
2021/07/15 03:31:59;;;;;;;14.33;10.45;;;;;;;18.91;78.48;96799.02;1787090;78;26510;-84
2021/07/15 03:34:29;;;;;;;17.05;10.13;;;;;;;18.93;78.72;96800.37;1787228;79;25812;-84
2021/07/15 03:36:56;;;;;;;13.30;9.38;;;;;;;19.02;78.95;96800.06;1756009;80;25820;-83
2021/07/15 03:39:24;;;;;;;16.85;11.20;;;;;;;19.05;78.92;96795.41;1770042;81;27460;-84
2021/07/15 03:41:52;;;;;;;17.40;10.55;;;;;;;19.08;79.05;96793.21;1769879;80;25666;-84
2021/07/15 03:44:19;;;;;;;15.30;10.30;;;;;;;19.11;79.14;96796.73;1769977;81;26311;-84
2021/07/15 03:46:47;;;;;;;13.95;9.45;;;;;;;19.12;79.02;96790.16;1770076;81;26277;-84
2021/07/15 03:49:19;;;;;;;18.55;11.48;;;;;;;19.07;78.91;96788.29;1755929;80;26412;-84
2021/07/15 03:51:46;;;;;;;16.17;9.53;;;;;;;19.08;79.12;96771.33;1769843;81;28267;-84
2021/07/15 03:54:14;;;;;;;15.20;9.75;;;;;;;19.10;79.23;96764.45;1786544;80;25682;-85
2021/07/15 03:56:43;;;;;;;22.27;10.60;;;;;;;19.13;79.25;96780.86;1787207;80;25765;-85
2021/07/15 03:59:11;;;;;;;15.75;10.85;;;;;;;19.12;79.23;96786.06;1787005;80;26548;-84
2021/07/15 04:01:40;;;;;;;17.55;10.10;;;;;;;19.13;79.40;96790.44;1787139;80;25724;-84
2021/07/15 04:04:08;;;;;;;16.87;9.98;;;;;;;19.17;79.51;96799.73;1786830;80;28610;-84
2021/07/15 04:06:37;;;;;;;15.88;10.32;;;;;;;19.18;79.49;96830.92;1786959;80;25876;-84
2021/07/15 04:09:08;;;;;;;20.00;10.90;;;;;;;19.13;79.40;96845.97;1787274;80;25578;-82
2021/07/15 04:11:37;;;;;;;20.60;10.72;;;;;;;19.13;79.59;96790.44;1787010;78;25737;-82
2021/07/15 04:14:07;;;;;;;17.45;10.25;;;;;;;19.13;79.63;96790.44;1756553;80;25990;-82
2021/07/15 04:16:47;;;;;;;16.52;10.10;;;;;;;19.15;79.62;96777.30;1786876;80;27342;-83
2021/07/15 04:19:15;;;;;;;14.78;9.75;;;;;;;19.12;79.62;96769.65;1786366;80;25690;-83
2021/07/15 04:21:43;;;;;;;16.05;10.60;;;;;;;19.15;79.75;96764.99;1787020;80;25208;-83
2021/07/15 04:24:10;;;;;;;15.78;10.75;;;;;;;19.13;79.62;96767.19;1787241;80;25698;-82
2021/07/15 04:26:37;;;;;;;14.20;10.08;;;;;;;19.16;79.80;96762.53;1787139;80;25690;-83
2021/07/15 04:29:05;;;;;;;18.55;10.60;;;;;;;19.20;79.78;96763.61;1786995;80;27538;-83
2021/07/15 04:31:59;;;;;;;25.08;11.35;;;;;;;19.22;79.78;96764.94;1791530;79;26273;-84
2021/07/15 04:34:27;;;;;;;18.50;11.40;;;;;;;19.26;79.85;96779.70;1792939;79;25838;-82
2021/07/15 04:36:55;;;;;;;18.65;10.68;;;;;;;19.36;79.87;96791.14;1792998;80;25912;-82
2021/07/15 04:39:25;;;;;;;15.15;11.08;;;;;;;19.42;79.77;96797.69;1793266;80;26336;-83
2021/07/15 04:41:53;;;;;;;16.90;10.72;;;;;;;19.45;79.79;96801.75;1792976;80;27359;-84
2021/07/15 04:44:20;;;;;;;16.57;12.13;;;;;;;19.51;80.08;96806.14;1792918;80;26306;-84
2021/07/15 04:46:48;;;;;;;17.82;11.00;;;;;;;19.57;80.26;96813.21;1785965;80;25752;-83
2021/07/15 04:49:14;;;;;;;19.07;12.03;;;;;;;19.62;80.20;96821.41;1761706;80;26505;-84
2021/07/15 04:51:43;;;;;;;18.17;10.88;;;;;;;19.67;79.91;96824.13;1775379;80;25784;-80
2021/07/15 04:54:13;;;;;;;21.35;11.35;;;;;;;19.70;79.72;96830.93;1793070;78;27341;-83
2021/07/15 04:56:41;;;;;;;18.90;11.25;;;;;;;19.75;79.68;96841.31;1761662;81;25772;-84
2021/07/15 04:59:08;;;;;;;17.77;11.25;;;;;;;19.76;79.69;96856.65;1793089;78;25686;-83
2021/07/15 05:01:36;;;;;;;16.80;11.28;;;;;;;19.79;79.72;96873.06;1793030;78;26405;-83
2021/07/15 05:04:04;;;;;;;15.50;10.35;;;;;;;19.82;79.66;96877.14;1761813;81;25728;-84
2021/07/15 05:06:31;;;;;;;16.07;11.12;;;;;;;19.80;79.65;96878.81;1792833;80;27483;-83
2021/07/15 05:08:57;;;;;;;23.90;11.60;;;;;;;19.77;79.84;96878.83;1793005;80;26413;-83
2021/07/15 05:11:24;;;;;;;16.05;11.25;;;;;;;19.76;79.90;96867.60;1758152;81;25682;-82
2021/07/15 05:13:50;;;;;;;18.30;9.73;;;;;;;19.78;80.03;96870.06;1761730;81;26666;-81
2021/07/15 05:16:17;;;;;;;18.40;10.25;;;;;;;19.80;80.05;96865.12;1793093;80;25704;-82
2021/07/15 05:18:45;;;;;;;17.50;10.38;;;;;;;19.81;79.94;96872.76;1792925;80;27246;-83
2021/07/15 05:21:12;;;;;;;18.30;10.15;;;;;;;19.85;80.06;96862.88;1792938;80;25732;-83
2021/07/15 05:23:38;;;;;;;14.78;9.55;;;;;;;19.89;80.16;96863.41;1792887;80;26399;-83
2021/07/15 05:26:05;;;;;;;13.32;10.25;;;;;;;19.92;80.17;96862.86;1773008;80;26614;-83
2021/07/15 05:28:32;;;;;;;16.23;10.98;;;;;;;19.94;80.13;96857.06;1773073;80;25750;-84
2021/07/15 05:30:58;;;;;;;14.83;10.23;;;;;;;19.96;80.10;96854.86;1772914;80;27578;-83
2021/07/15 05:33:25;;;;;;;15.63;10.55;;;;;;;20.00;80.20;96853.20;1751319;80;26024;-83
2021/07/15 05:35:52;;;;;;;17.02;11.28;;;;;;;20.03;80.17;96856.75;1765703;80;25779;-83
2021/07/15 05:38:18;;;;;;;21.23;10.48;;;;;;;20.04;80.22;96852.91;1742616;80;26272;-83
2021/07/15 05:40:45;;;;;;;12.70;10.08;;;;;;;20.05;80.22;96840.83;1742409;80;25758;-83
2021/07/15 05:43:12;;;;;;;14.23;10.13;;;;;;;20.08;80.31;96841.08;1742391;80;27381;-82
2021/07/15 05:45:38;;;;;;;15.13;9.95;;;;;;;20.14;80.38;96847.35;1765661;80;25962;-82
2021/07/15 05:48:05;;;;;;;19.85;10.38;;;;;;;20.18;80.51;96843.47;1761556;80;25663;-82
2021/07/15 05:50:32;;;;;;;13.72;10.13;;;;;;;20.27;80.59;96849.99;1755900;80;26294;-82
2021/07/15 05:52:59;;;;;;;17.25;10.65;;;;;;;20.32;80.47;96858.97;1788695;78;25717;-82
2021/07/15 05:55:26;;;;;;;20.62;11.15;;;;;;;20.37;80.26;96868.57;1761577;81;27530;-82
2021/07/15 05:57:52;;;;;;;20.70;11.65;;;;;;;20.41;80.09;96879.20;1792780;80;25940;-82
2021/07/15 06:00:19;;;;;;;18.35;10.58;;;;;;;20.44;80.09;96885.49;1793021;78;26336;-82
2021/07/15 06:02:46;;;;;;;16.50;10.45;;;;;;;20.46;79.94;96877.80;1758054;81;25761;-82
2021/07/15 06:05:12;;;;;;;13.15;10.05;;;;;;;20.41;79.95;96872.36;1761226;80;25793;-83
2021/07/15 06:07:39;;;;;;;14.03;9.88;;;;;;;20.42;79.73;96865.77;1792755;78;27340;-82
2021/07/15 06:10:07;;;;;;;17.23;10.65;;;;;;;20.42;79.84;96847.95;1761432;81;25906;-81
2021/07/15 06:12:34;;;;;;;19.80;11.28;;;;;;;20.45;79.95;96835.59;1772578;80;25752;-82
2021/07/15 06:15:01;;;;;;;15.70;10.50;;;;;;;20.49;80.11;96821.59;1773029;80;25677;-82
2021/07/15 06:17:28;;;;;;;18.27;10.90;;;;;;;20.59;80.18;96817.92;1773040;80;25721;-82
2021/07/15 06:19:54;;;;;;;13.45;9.73;;;;;;;20.63;79.92;96821.73;1772927;80;27635;-82
2021/07/15 06:22:21;;;;;;;18.60;10.50;;;;;;;20.66;79.93;96822.50;1761398;80;25705;-83
2021/07/15 06:24:48;;;;;;;15.83;10.28;;;;;;;20.70;79.99;96833.17;1772926;80;25256;-83
2021/07/15 06:27:14;;;;;;;16.77;9.90;;;;;;;20.72;79.85;96848.78;1772919;80;25813;-83
2021/07/15 06:29:41;;;;;;;14.28;10.00;;;;;;;20.75;79.72;96860.55;1761512;80;25522;-82
2021/07/15 06:32:08;;;;;;;16.02;10.90;;;;;;;20.77;79.56;96872.06;1772707;80;28317;-82
2021/07/15 06:34:35;;;;;;;22.55;10.63;;;;;;;20.78;79.31;96886.01;1772878;80;25737;-81
2021/07/15 06:37:06;;;;;;;24.37;11.43;;;;;;;20.77;79.39;96884.41;1772960;80;25733;-84
2021/07/15 06:39:33;;;;;;;22.22;11.33;;;;;;;20.76;79.34;96867.67;1753210;80;25829;-82
2021/07/15 06:42:00;;;;;;;18.85;10.95;;;;;;;20.76;79.50;96848.48;1775962;79;25769;-83
2021/07/15 06:44:27;;;;;;;15.70;11.95;;;;;;;20.65;79.45;96857.92;1781504;80;28178;-82
2021/07/15 06:46:53;;;;;;;14.60;10.23;;;;;;;20.59;79.60;96874.14;1781374;80;26477;-81
2021/07/15 06:49:22;;;;;;;14.18;10.50;;;;;;;20.53;79.42;96872.56;1781324;79;25810;-85
2021/07/15 06:51:49;;;;;;;18.37;9.20;;;;;;;20.43;79.34;96905.78;1781394;80;25800;-86
2021/07/15 06:55:42;;;;;;;11.78;5.67;;;;;;;20.37;79.26;96920.65;1763709;80;25722;-81
2021/07/15 06:58:10;;;;;;;13.68;5.75;;;;;;;20.23;78.68;96916.88;1706888;83;27457;-80
2021/07/15 07:00:37;;;;;;;17.10;5.87;;;;;;;19.95;78.31;96932.11;1716858;82;25965;-81
2021/07/15 07:03:04;;;;;;;9.35;5.58;;;;;;;19.73;78.24;96955.78;1726627;82;26460;-84
2021/07/15 07:05:31;;;;;;;8.83;5.25;;;;;;;19.58;78.58;96948.99;1716957;83;26521;-85
2021/07/15 07:07:58;;;;;;;5.70;4.87;;;;;;;19.50;78.92;96928.23;1717455;83;25717;-84
2021/07/15 07:10:25;;;;;;;11.10;4.70;;;;;;;19.43;79.12;96940.28;1717350;83;27579;-82
2021/07/15 07:12:52;;;;;;;8.98;5.33;;;;;;;19.33;78.81;96953.97;1717083;82;25820;-84
2021/07/15 07:15:19;;;;;;;7.92;4.37;;;;;;;19.19;79.02;96950.20;1717152;83;25550;-83
2021/07/15 07:17:48;;;;;;;12.47;4.97;;;;;;;19.15;79.41;96944.18;1711682;82;44229;-81
2021/07/15 07:20:16;;;;;;;11.40;5.33;;;;;;;19.11;79.28;96966.34;1722623;82;25744;-81
2021/07/15 07:22:44;;;;;;;8.13;4.70;;;;;;;19.00;79.38;96978.66;1716064;82;28256;-84
2021/07/15 07:25:13;;;;;;;8.88;5.30;;;;;;;18.99;79.52;96983.86;1722511;82;25729;-84
2021/07/15 07:27:42;;;;;;;8.08;5.00;;;;;;;18.97;79.65;97003.82;1717197;82;26633;-82
2021/07/15 07:30:13;;;;;;;7.28;5.08;;;;;;;18.96;79.70;97013.13;1714724;82;26151;-81
2021/07/15 07:32:40;;;;;;;9.65;6.33;;;;;;;18.99;79.71;97024.89;1692137;83;25931;-81
2021/07/15 07:35:08;;;;;;;10.80;5.40;;;;;;;19.02;79.78;97033.92;1765545;80;28233;-83
2021/07/15 07:37:36;;;;;;;12.50;6.10;;;;;;;19.00;79.72;97038.02;1762149;80;25766;-77
2021/07/15 07:40:06;;;;;;;12.40;6.47;;;;;;;18.90;79.76;97038.84;1771946;80;25251;-77
2021/07/15 07:42:34;;;;;;;8.35;5.17;;;;;;;18.88;79.99;97000.00;1740215;81;26277;-79
2021/07/15 07:45:01;;;;;;;8.10;5.37;;;;;;;18.86;79.96;96976.21;1760068;80;25796;-77
2021/07/15 07:47:28;;;;;;;7.92;5.28;;;;;;;18.81;79.90;96947.52;1759153;80;27383;-81
2021/07/15 07:49:56;;;;;;;9.60;5.15;;;;;;;18.70;79.87;96929.48;1754667;80;25708;-78
2021/07/15 07:52:23;;;;;;;6.87;4.92;;;;;;;18.66;80.12;96886.02;1744995;81;25729;-77
2021/07/15 07:54:50;;;;;;;10.35;6.30;;;;;;;18.59;80.08;96877.29;1756588;81;25697;-84
2021/07/15 07:57:17;;;;;;;14.53;5.65;;;;;;;18.47;80.21;96898.58;1758396;81;26569;-83
2021/07/15 07:59:44;;;;;;;6.12;5.22;;;;;;;18.39;80.44;96889.55;1758156;81;28280;-83
2021/07/15 08:02:11;;;;;;;7.40;5.08;;;;;;;18.33;80.65;96889.56;1758528;81;25816;-83
2021/07/15 08:04:37;;;;;;;7.00;4.95;;;;;;;18.28;80.59;96884.09;1758480;81;25427;-84
2021/07/15 08:07:08;;;;;;;9.88;5.20;;;;;;;18.33;80.83;96894.20;1758226;80;25795;-84
2021/07/15 08:09:41;;;;;;;8.45;4.92;;;;;;;18.35;80.92;96905.11;1758257;81;25614;-82
2021/07/15 08:12:02;;;;;;;6.70;5.15;;;;;;;18.45;81.11;96898.85;1757266;81;28262;-83
2021/07/15 08:14:29;;;;;;;10.68;6.15;;;;;;;18.58;81.31;96895.60;1758408;81;26010;-83
2021/07/15 08:16:56;;;;;;;8.70;6.33;;;;;;;18.65;81.10;96888.47;1758649;80;25832;-82
2021/07/15 08:19:22;;;;;;;14.38;7.83;;;;;;;18.69;81.39;96884.92;1758701;81;25714;-83
2021/07/15 08:21:49;;;;;;;11.08;7.53;;;;;;;18.75;81.58;96881.62;1758736;81;25820;-83
2021/07/15 08:24:16;;;;;;;13.43;6.72;;;;;;;18.77;81.49;96880.80;1758618;81;27342;-85
2021/07/15 08:26:42;;;;;;;10.28;6.80;;;;;;;18.79;81.37;96908.69;1758538;81;25790;-83
2021/07/15 08:29:09;;;;;;;10.30;6.85;;;;;;;18.84;81.55;96926.44;1757996;81;25676;-85
2021/07/15 08:31:35;;;;;;;11.15;7.33;;;;;;;18.92;81.70;96930.00;1783624;80;25688;-85
2021/07/15 08:34:02;;;;;;;11.50;7.10;;;;;;;19.01;81.74;96926.15;1776041;78;25790;-86
2021/07/15 08:36:31;;;;;;;13.22;6.95;;;;;;;19.30;82.07;96919.52;1755871;81;27389;-86
2021/07/15 08:38:59;;;;;;;10.40;7.25;;;;;;;19.45;81.99;96926.28;1755890;81;26137;-86
2021/07/15 08:41:26;;;;;;;11.70;7.03;;;;;;;19.53;81.78;96940.81;1756120;81;25710;-88
2021/07/15 08:43:53;;;;;;;11.55;7.08;;;;;;;19.61;81.69;96940.77;1755978;80;25737;-86
2021/07/15 08:46:21;;;;;;;11.70;6.20;;;;;;;19.66;81.24;96953.09;1755922;80;25732;-86
2021/07/15 08:48:49;;;;;;;8.90;6.85;;;;;;;19.65;81.25;96944.05;1756002;81;27361;-85
2021/07/15 08:51:16;;;;;;;10.82;6.85;;;;;;;19.71;81.29;96936.62;1755921;80;25777;-86
2021/07/15 08:53:44;;;;;;;8.93;6.45;;;;;;;19.70;81.12;96932.24;1755877;80;25749;-86
2021/07/15 08:59:01;;;;;;;11.48;6.90;;;;;;;19.68;81.29;96923.52;1755748;80;25694;-87
2021/07/15 09:01:31;;;;;;;17.75;8.38;;;;;;;19.68;81.43;96913.34;1755965;80;27436;-86
2021/07/15 09:03:57;;;;;;;16.17;9.50;;;;;;;19.72;81.55;96902.66;1753664;80;26360;-86
2021/07/15 09:06:24;;;;;;;13.78;8.50;;;;;;;19.77;81.63;96893.06;1786527;79;26375;-86
2021/07/15 09:08:54;;;;;;;12.47;8.70;;;;;;;19.82;81.66;96901.78;1787199;80;25963;-85
2021/07/15 09:11:22;;;;;;;12.43;8.73;;;;;;;19.86;81.58;96913.27;1787149;80;25693;-86
2021/07/15 09:13:49;;;;;;;15.78;9.43;;;;;;;19.85;81.51;96916.29;1787257;80;27417;-86
2021/07/15 09:16:18;;;;;;;11.50;8.63;;;;;;;19.82;81.46;96927.25;1787028;80;25863;-86
2021/07/15 09:19:01;;;;;;;14.60;10.82;;;;;;;19.77;81.45;96928.12;1787227;80;25745;-85
2021/07/15 09:21:34;;;;;;;12.05;9.18;;;;;;;19.74;81.53;96945.10;1787065;80;25859;-86
2021/07/15 09:24:17;;;;;;;10.85;8.10;;;;;;;19.75;81.70;96933.05;1787172;79;25751;-84
2021/07/15 09:26:43;;;;;;;10.30;7.92;;;;;;;19.76;81.61;96932.50;1768055;80;27361;-84
2021/07/15 09:29:18;;;;;;;14.35;8.33;;;;;;;19.76;81.50;96934.69;1735541;82;26663;-85
2021/07/15 09:31:56;;;;;;;11.95;7.85;;;;;;;19.78;81.44;96928.94;1738306;82;25828;-84
2021/07/15 09:34:26;;;;;;;13.65;8.40;;;;;;;19.75;81.42;96908.41;1752248;81;26111;-84
2021/07/15 09:36:54;;;;;;;10.72;8.60;;;;;;;19.71;81.59;96916.91;1762349;80;25769;-84
2021/07/15 09:39:28;;;;;;;13.72;8.70;;;;;;;19.72;81.73;96919.09;1790132;79;27355;-83
2021/07/15 09:42:15;;;;;;;14.05;8.85;;;;;;;19.73;81.78;96917.45;1806180;79;26002;-83
2021/07/15 09:44:39;;;;;;;18.30;10.03;;;;;;;19.71;81.83;96928.41;1805476;79;25794;-83
2021/07/15 09:47:06;;;;;;;12.50;9.95;;;;;;;19.76;82.01;96927.02;1806323;79;25718;-85
2021/07/15 09:49:35;;;;;;;13.40;9.95;;;;;;;19.84;82.01;96925.05;1778021;79;25750;-85
2021/07/15 09:52:04;;;;;;;12.75;10.00;;;;;;;19.96;82.11;96919.23;1755721;79;28176;-85
2021/07/15 09:54:30;;;;;;;16.32;10.53;;;;;;;20.05;82.24;96907.39;1803755;79;25829;-84
2021/07/15 09:56:57;;;;;;;18.23;11.22;;;;;;;20.17;82.26;96916.63;1806526;78;25806;-86
2021/07/15 09:59:24;;;;;;;20.45;12.50;;;;;;;20.26;82.28;96909.47;1806282;79;25738;-85
2021/07/15 10:01:53;;;;;;;17.17;11.33;;;;;;;20.35;82.30;96905.03;1793445;79;25783;-85
2021/07/15 10:04:27;;;;;;;19.42;10.98;;;;;;;20.48;82.40;96899.45;1816806;78;27364;-86
2021/07/15 10:06:57;;;;;;;14.70;10.40;;;;;;;20.62;82.63;96900.98;1822935;78;25654;-84
2021/07/15 10:09:27;;;;;;;15.28;9.93;;;;;;;20.80;82.58;96901.63;1823005;77;25306;-84
2021/07/15 10:11:57;;;;;;;18.37;10.15;;;;;;;20.95;82.37;96902.86;1823408;78;25752;-84
2021/07/15 10:14:39;;;;;;;15.65;9.98;;;;;;;21.05;82.09;96893.14;1811902;78;25744;-84
2021/07/15 10:17:07;;;;;;;18.27;10.30;;;;;;;21.16;81.92;96889.19;1788258;78;27452;-85
2021/07/15 10:19:35;;;;;;;14.30;10.13;;;;;;;21.28;81.66;96890.73;1808776;78;26363;-84
2021/07/15 10:22:14;;;;;;;21.45;11.12;;;;;;;;;;1786169;78;25804;-83
2021/07/15 10:24:39;;;;;;;14.80;10.43;;;;;;;21.58;81.64;96878.58;1811276;77;25754;-82
2021/07/15 10:27:12;;;;;;;18.30;10.65;;;;;;;21.87;81.70;96886.95;1827923;77;25717;-83
2021/07/15 10:29:40;;;;;;;13.85;10.15;;;;;;;22.28;82.04;96896.01;1823207;78;27424;-82
2021/07/15 10:32:10;;;;;;;12.93;8.93;;;;;;;22.67;81.71;96886.59;1823192;78;25776;-83
2021/07/15 10:34:39;;;;;;;18.70;9.85;;;;;;;22.95;80.85;96885.55;1823277;78;25259;-84
2021/07/15 10:37:06;;;;;;;17.70;10.05;;;;;;;23.06;80.23;96873.25;1823348;78;26329;-83
2021/07/15 10:39:37;;;;;;;16.57;10.48;;;;;;;23.16;79.72;96877.19;1833060;77;25643;-82
2021/07/15 10:42:04;;;;;;;13.30;9.40;;;;;;;23.20;79.76;96874.05;1823345;78;29948;-82
2021/07/15 10:44:32;;;;;;;16.17;9.65;;;;;;;23.16;79.38;96862.05;1802784;78;25702;-82
2021/07/15 10:46:59;;;;;;;12.35;9.35;;;;;;;23.22;79.34;96873.75;1810204;78;25807;-82
2021/07/15 10:49:26;;;;;;;13.93;10.30;;;;;;;23.22;79.34;96873.75;1806307;78;25771;-83
2021/07/15 10:51:56;;;;;;;14.23;10.82;;;;;;;23.29;79.77;96858.48;1823105;77;26292;-83
2021/07/15 10:54:24;;;;;;;12.93;10.53;;;;;;;23.29;79.77;96858.48;1823518;78;27330;-83
2021/07/15 10:56:53;;;;;;;19.40;11.68;;;;;;;23.35;79.43;96861.37;1823219;78;25793;-83
2021/07/15 10:59:31;;;;;;;13.03;9.83;;;;;;;23.25;79.24;96838.17;1823508;77;25729;-82
2021/07/15 11:02:01;;;;;;;12.53;9.23;;;;;;;23.41;79.42;96858.53;1823433;78;25670;-82
2021/07/15 11:04:36;;;;;;;16.97;10.90;;;;;;;23.43;79.16;96872.22;1823478;78;25677;-81
2021/07/15 11:07:27;;;;;;;18.23;11.00;;;;;;;23.49;79.13;96881.20;1823099;78;27377;-82
2021/07/15 11:10:00;;;;;;;15.72;10.98;;;;;;;23.52;78.48;96881.45;1823206;78;25676;-81
2021/07/15 11:12:38;;;;;;;14.47;9.45;;;;;;;23.56;77.98;96880.25;1802489;77;25736;-83
2021/07/15 11:15:10;;;;;;;16.40;10.32;;;;;;;23.61;77.83;96876.03;1822564;77;25755;-82
2021/07/15 11:17:52;;;;;;;15.23;10.90;;;;;;;23.68;77.49;96876.42;1823476;78;25696;-83
2021/07/15 11:20:31;;;;;;;19.20;10.25;;;;;;;23.79;77.71;96886.69;1823352;78;27614;-83
2021/07/15 11:23:01;;;;;;;15.15;10.10;;;;;;;23.85;76.95;96882.12;1820256;78;25231;-82
2021/07/15 11:25:36;;;;;;;17.85;10.03;;;;;;;23.92;77.00;96874.23;1823170;78;25868;-83
2021/07/15 11:28:23;;;;;;;16.65;10.53;;;;;;;24.03;76.84;96867.36;1818713;78;25799;-83
2021/07/15 11:30:55;;;;;;;16.35;9.70;;;;;;;24.17;76.63;96870.64;1823518;78;25744;-82
2021/07/15 11:33:29;;;;;;;14.30;10.30;;;;;;;24.39;76.42;96872.09;1797508;78;27524;-84
2021/07/15 11:36:07;;;;;;;17.12;10.63;;;;;;;24.57;76.61;96857.28;1818095;78;25793;-85
2021/07/15 11:38:47;;;;;;;18.48;10.90;;;;;;;24.74;76.17;96860.17;1818629;78;26287;-85
2021/07/15 11:41:16;;;;;;;16.45;10.00;;;;;;;24.87;75.79;96865.92;1797595;78;26622;-83